Time;durP1;ratioP1;P1;durP2;ratioP2;P2;SDS_P1;SDS_P2;PMS_P1;PMS_P2;Temp;Humidity;BMP_temperature;BMP_pressure;BME280_temperature;BME280_humidity;BME280_pressure;Samples;Min_cycle;Max_cycle;Signal;HPM_P1;HPM_P2
2022/07/12 00:02:03;;;;;;;5.72;3.65;;;;;;;;;;5029216;28;20383;-75
2022/07/12 00:04:29;;;;;;;6.13;2.88;;;;;;;;;;5027728;28;20025;-75
2022/07/12 00:06:55;;;;;;;3.58;2.50;;;;;;;;;;5026424;28;20021;-74
2022/07/12 00:09:21;;;;;;;3.40;2.60;;;;;;;;;;5029710;28;20029;-75
2022/07/12 00:11:47;;;;;;;5.03;2.60;;;;;;;;;;5028814;28;20471;-75
2022/07/12 00:14:14;;;;;;;3.60;2.60;;;;;;;;;;5027780;28;20104;-74
2022/07/12 00:16:40;;;;;;;3.70;2.80;;;;;;;;;;5029944;28;20517;-74
2022/07/12 00:19:07;;;;;;;3.30;2.40;;;;;;;;;;5023008;28;20037;-75
2022/07/12 00:21:33;;;;;;;3.80;2.83;;;;;;;;;;5027058;28;20026;-74
2022/07/12 00:23:59;;;;;;;6.07;3.15;;;;;;;;;;5027580;28;20065;-75
2022/07/12 00:26:25;;;;;;;2.60;2.38;;;;;;;;;;5029522;28;20032;-74
2022/07/12 00:28:54;;;;;;;3.13;2.60;;;;;;;;;;5022841;28;21269;-75
2022/07/12 00:31:23;;;;;;;2.88;2.53;;;;;;;;;;5025928;28;20121;-75
2022/07/12 00:33:49;;;;;;;2.97;2.50;;;;;;;;;;5022792;28;20029;-74
2022/07/12 00:36:16;;;;;;;3.67;2.55;;;;;;;;;;5028643;28;20049;-75
2022/07/12 00:38:42;;;;;;;2.95;2.20;;;;;;;;;;5028768;28;20032;-74
2022/07/12 00:41:08;;;;;;;3.15;2.40;;;;;;;;;;5028456;28;20029;-74
2022/07/12 00:43:34;;;;;;;5.07;2.60;;;;;;;;;;5030131;28;20479;-75
2022/07/12 00:46:00;;;;;;;4.22;2.80;;;;;;;;;;5027265;28;20032;-73
2022/07/12 00:48:26;;;;;;;3.58;2.40;;;;;;;;;;5030435;28;20025;-75
2022/07/12 00:50:52;;;;;;;3.85;2.55;;;;;;;;;;5029310;28;20022;-74
2022/07/12 00:53:23;;;;;;;4.00;2.70;;;;;;;;;;5029355;28;20429;-74
2022/07/12 00:55:49;;;;;;;4.35;3.03;;;;;;;;;;5024609;28;20053;-75
2022/07/12 00:58:15;;;;;;;3.13;2.53;;;;;;;;;;5024785;28;20060;-75
2022/07/12 01:00:42;;;;;;;4.35;2.75;;;;;;;;;;5027255;28;20030;-73
2022/07/12 01:03:08;;;;;;;3.00;2.55;;;;;;;;;;5026029;28;20029;-75
2022/07/12 01:05:34;;;;;;;3.50;2.45;;;;;;;;;;5029206;28;20021;-74
2022/07/12 01:08:00;;;;;;;6.57;3.17;;;;;;;;;;5026154;28;20104;-74
2022/07/12 01:10:26;;;;;;;4.32;2.63;;;;;;;;;;5021031;28;20092;-74
2022/07/12 01:12:52;;;;;;;4.20;2.75;;;;;;;;;;5028087;28;20111;-74
2022/07/12 01:15:20;;;;;;;2.95;2.55;;;;;;;;;;5027344;28;20482;-74
2022/07/12 01:17:46;;;;;;;4.18;2.58;;;;;;;;;;5028326;28;20053;-74
2022/07/12 01:20:13;;;;;;;2.90;2.40;;;;;;;;;;5027340;28;20033;-74
2022/07/12 01:22:40;;;;;;;5.13;2.83;;;;;;;;;;5026548;28;20024;-74
2022/07/12 01:25:07;;;;;;;5.75;3.25;;;;;;;;;;5026517;28;20097;-75
2022/07/12 01:27:33;;;;;;;3.22;2.33;;;;;;;;;;5025387;28;20042;-74
2022/07/12 01:30:02;;;;;;;4.22;2.67;;;;;;;;;;5026372;28;20057;-74
2022/07/12 01:32:29;;;;;;;4.28;3.38;;;;;;;;;;5023425;28;20533;-74
2022/07/12 01:35:00;;;;;;;7.03;2.88;;;;;;;;;;5025105;28;20478;-75
2022/07/12 01:37:29;;;;;;;4.47;2.88;;;;;;;;;;5027290;28;20568;-74
2022/07/12 01:39:56;;;;;;;3.08;2.58;;;;;;;;;;5027476;28;20119;-74
2022/07/12 01:42:24;;;;;;;5.15;2.60;;;;;;;;;;5028743;28;20474;-74
2022/07/12 01:44:50;;;;;;;3.05;2.72;;;;;;;;;;5027284;28;20034;-75
2022/07/12 01:47:18;;;;;;;4.32;2.70;;;;;;;;;;5027306;28;20017;-73
2022/07/12 01:49:44;;;;;;;7.07;2.92;;;;;;;;;;5028454;28;20108;-75
2022/07/12 01:52:10;;;;;;;4.25;3.20;;;;;;;;;;5023720;28;20105;-74
2022/07/12 01:54:37;;;;;;;4.80;3.00;;;;;;;;;;5017954;28;20446;-74
2022/07/12 01:57:04;;;;;;;3.45;2.95;;;;;;;;;;5020380;28;20478;-74
2022/07/12 01:59:30;;;;;;;3.80;2.90;;;;;;;;;;5017587;28;20056;-74
2022/07/12 02:01:57;;;;;;;5.80;3.10;;;;;;;;;;5020271;28;20499;-74
2022/07/12 02:04:23;;;;;;;5.05;3.08;;;;;;;;;;5018888;28;20084;-74
2022/07/12 02:06:50;;;;;;;3.63;3.20;;;;;;;;;;5020274;28;20068;-75
2022/07/12 02:09:16;;;;;;;3.50;3.20;;;;;;;;;;5018677;28;20029;-73
2022/07/12 02:11:43;;;;;;;4.82;3.40;;;;;;;;;;5025313;28;20022;-74
2022/07/12 02:14:09;;;;;;;5.63;3.70;;;;;;;;;;5026851;28;20084;-74
2022/07/12 02:16:35;;;;;;;3.28;2.97;;;;;;;;;;5025924;28;20022;-73
2022/07/12 02:19:01;;;;;;;5.03;3.13;;;;;;;;;;5022519;28;20053;-75
2022/07/12 02:21:27;;;;;;;3.42;3.13;;;;;;;;;;5026376;28;20021;-73
2022/07/12 02:23:53;;;;;;;5.50;3.17;;;;;;;;;;5026198;28;20037;-74
2022/07/12 02:26:20;;;;;;;3.42;3.13;;;;;;;;;;5027277;28;20480;-73
2022/07/12 02:28:46;;;;;;;3.28;2.80;;;;;;;;;;5025842;28;20042;-73
2022/07/12 02:31:12;;;;;;;4.85;3.30;;;;;;;;;;5027793;28;20025;-74
2022/07/12 02:33:38;;;;;;;5.30;3.28;;;;;;;;;;5023578;28;20119;-73
2022/07/12 02:36:04;;;;;;;4.55;3.17;;;;;;;;;;5023562;28;20056;-74
2022/07/12 02:38:30;;;;;;;3.97;2.97;;;;;;;;;;5025983;28;20034;-74
2022/07/12 02:40:56;;;;;;;3.42;3.13;;;;;;;;;;5024024;28;20030;-73
2022/07/12 02:43:40;;;;;;;4.38;3.50;;;;;;;;;;5026391;28;20033;-74
2022/07/12 02:46:08;;;;;;;6.55;3.88;;;;;;;;;;5028456;28;20025;-74
2022/07/12 02:48:34;;;;;;;4.25;3.40;;;;;;;;;;5027691;28;20026;-74
2022/07/12 02:51:00;;;;;;;3.63;3.33;;;;;;;;;;5030894;28;20032;-74
2022/07/12 02:53:27;;;;;;;4.57;3.20;;;;;;;;;;5029688;28;20026;-72
2022/07/12 02:55:53;;;;;;;4.85;2.95;;;;;;;;;;5030686;28;20053;-74
2022/07/12 02:58:19;;;;;;;5.28;3.30;;;;;;;;;;5026440;28;20026;-73
2022/07/12 03:00:45;;;;;;;4.05;2.97;;;;;;;;;;5028643;28;20549;-73
2022/07/12 03:03:14;;;;;;;3.72;3.25;;;;;;;;;;5029330;28;20034;-74
2022/07/12 03:05:41;;;;;;;3.78;3.10;;;;;;;;;;5029387;28;20088;-74
2022/07/12 03:08:08;;;;;;;7.40;3.65;;;;;;;;;;5028891;28;20037;-74
2022/07/12 03:10:34;;;;;;;4.68;3.05;;;;;;;;;;5030171;28;20045;-73
2022/07/12 03:13:01;;;;;;;4.32;3.42;;;;;;;;;;5023609;28;20060;-74
2022/07/12 03:15:27;;;;;;;3.75;3.00;;;;;;;;;;5029221;28;20022;-74
2022/07/12 03:17:54;;;;;;;5.25;3.30;;;;;;;;;;5028233;28;20077;-74
2022/07/12 03:20:21;;;;;;;4.10;3.67;;;;;;;;;;5026828;28;20540;-73
2022/07/12 03:22:48;;;;;;;8.25;3.45;;;;;;;;;;5030292;28;20788;-74
2022/07/12 03:25:15;;;;;;;5.75;3.50;;;;;;;;;;5023872;28;20409;-74
2022/07/12 03:27:41;;;;;;;4.40;3.72;;;;;;;;;;5028766;28;20083;-74
2022/07/12 03:30:08;;;;;;;3.97;3.53;;;;;;;;;;5029457;28;20021;-74
2022/07/12 03:32:34;;;;;;;4.00;3.40;;;;;;;;;;5029621;28;20040;-74
2022/07/12 03:35:00;;;;;;;5.95;3.72;;;;;;;;;;5029934;28;20033;-75
2022/07/12 03:37:27;;;;;;;5.13;3.60;;;;;;;;;;5030572;28;20021;-76
2022/07/12 03:39:56;;;;;;;4.70;3.65;;;;;;;;;;5021851;28;20022;-74
2022/07/12 03:42:22;;;;;;;5.05;3.55;;;;;;;;;;5029681;28;20028;-74
2022/07/12 03:44:48;;;;;;;5.30;3.17;;;;;;;;;;5028215;28;20025;-74
2022/07/12 03:47:14;;;;;;;4.63;3.80;;;;;;;;;;5028711;28;20029;-75
2022/07/12 03:49:41;;;;;;;5.05;3.65;;;;;;;;;;5030084;28;20021;-74
2022/07/12 03:52:07;;;;;;;3.95;3.33;;;;;;;;;;5026787;28;20028;-74
2022/07/12 03:54:33;;;;;;;5.95;3.85;;;;;;;;;;5028140;28;20079;-75
2022/07/12 03:57:15;;;;;;;8.43;4.18;;;;;;;;;;5030476;28;20562;-74
2022/07/12 03:59:41;;;;;;;5.03;3.20;;;;;;;;;;5023950;28;20021;-75
2022/07/12 04:02:08;;;;;;;5.25;3.90;;;;;;;;;;5026839;28;20022;-75
2022/07/12 04:04:34;;;;;;;5.82;3.95;;;;;;;;;;5029331;28;20112;-75
2022/07/12 04:07:00;;;;;;;5.35;3.55;;;;;;;;;;5026777;28;20060;-74
2022/07/12 04:09:26;;;;;;;4.25;3.78;;;;;;;;;;5029597;28;20032;-74
2022/07/12 04:11:52;;;;;;;4.35;3.67;;;;;;;;;;5025241;28;20014;-74
2022/07/12 04:14:18;;;;;;;5.15;3.63;;;;;;;;;;5026835;28;20033;-74
2022/07/12 04:16:44;;;;;;;4.95;3.75;;;;;;;;;;5027774;28;20889;-75
2022/07/12 04:19:10;;;;;;;4.55;3.97;;;;;;;;;;5023182;28;20482;-74
2022/07/12 04:21:37;;;;;;;6.47;3.65;;;;;;;;;;5028721;28;20025;-74
2022/07/12 04:24:04;;;;;;;5.88;3.85;;;;;;;;;;5027422;28;20501;-73
2022/07/12 04:26:30;;;;;;;7.32;3.42;;;;;;;;;;5029529;28;20108;-74
2022/07/12 04:28:57;;;;;;;6.68;3.60;;;;;;;;;;5028367;28;20129;-75
2022/07/12 04:31:23;;;;;;;6.07;3.50;;;;;;;;;;5029042;28;20032;-75
2022/07/12 04:33:49;;;;;;;4.30;3.60;;;;;;;;;;5025632;28;20490;-74
2022/07/12 04:36:15;;;;;;;3.75;3.33;;;;;;;;;;5027737;28;20034;-75
2022/07/12 04:38:41;;;;;;;4.75;3.78;;;;;;;;;;5024154;28;20079;-75
2022/07/12 04:41:08;;;;;;;5.20;4.70;;;;;;;;;;5028985;28;20127;-74
2022/07/12 04:43:34;;;;;;;4.22;3.60;;;;;;;;;;5026185;28;20040;-74
2022/07/12 04:46:10;;;;;;;5.13;3.70;;;;;;;;;;5028544;28;20037;-74
2022/07/12 04:48:36;;;;;;;4.80;4.03;;;;;;;;;;5024885;28;20026;-74
2022/07/12 04:51:03;;;;;;;5.57;4.18;;;;;;;;;;5028080;28;20382;-73
2022/07/12 04:53:29;;;;;;;7.00;4.32;;;;;;;;;;5029416;28;20026;-74
2022/07/12 04:55:56;;;;;;;4.40;3.70;;;;;;;;;;5026795;28;20544;-74
2022/07/12 04:58:23;;;;;;;4.63;3.78;;;;;;;;;;5028312;28;20412;-74
2022/07/12 05:00:49;;;;;;;5.80;3.85;;;;;;;;;;5027143;28;20025;-75
2022/07/12 05:03:15;;;;;;;6.10;3.58;;;;;;;;;;5027750;28;20494;-75
2022/07/12 05:05:41;;;;;;;5.78;3.63;;;;;;;;;;5031721;28;20510;-75
2022/07/12 05:08:07;;;;;;;5.07;3.55;;;;;;;;;;5029244;28;20421;-74
2022/07/12 05:10:33;;;;;;;9.23;3.90;;;;;;;;;;5028262;28;20083;-75
2022/07/12 05:12:59;;;;;;;6.43;3.63;;;;;;;;;;5024596;28;20198;-75
2022/07/12 05:15:25;;;;;;;4.25;3.60;;;;;;;;;;5027798;28;20100;-74
2022/07/12 05:17:51;;;;;;;5.63;3.95;;;;;;;;;;5023975;28;20029;-74
2022/07/12 05:20:17;;;;;;;5.28;3.90;;;;;;;;;;5027113;28;20100;-74
2022/07/12 05:22:43;;;;;;;4.35;3.85;;;;;;;;;;5028334;28;20025;-74
2022/07/12 05:25:09;;;;;;;5.05;4.00;;;;;;;;;;5028721;28;20091;-74
2022/07/12 05:27:36;;;;;;;5.15;4.00;;;;;;;;;;5027970;28;20045;-74
2022/07/12 05:30:03;;;;;;;5.20;3.45;;;;;;;;;;5027682;28;20033;-74
2022/07/12 05:32:29;;;;;;;5.32;3.88;;;;;;;;;;5027107;28;20085;-75
2022/07/12 05:34:55;;;;;;;7.35;3.83;;;;;;;;;;5026510;28;20040;-74
2022/07/12 05:37:23;;;;;;;4.85;3.47;;;;;;;;;;5026593;28;20040;-75
2022/07/12 05:39:49;;;;;;;4.57;3.88;;;;;;;;;;5023651;28;20029;-74
2022/07/12 05:42:15;;;;;;;6.20;3.75;;;;;;;;;;5024752;28;20122;-74
2022/07/12 05:44:41;;;;;;;4.40;3.58;;;;;;;;;;5025135;28;20036;-73
2022/07/12 05:47:07;;;;;;;4.63;3.88;;;;;;;;;;5026890;28;20098;-74
2022/07/12 05:49:33;;;;;;;5.90;4.18;;;;;;;;;;5024664;28;20344;-73
2022/07/12 05:54:44;;;;;;;8.75;7.85;;;;;;;;;;5025617;28;20060;-74
2022/07/12 05:57:11;;;;;;;6.22;4.93;;;;;;;;;;5025758;28;20033;-74
2022/07/12 05:59:37;;;;;;;5.90;4.82;;;;;;;;;;5027253;28;20036;-75
2022/07/12 06:02:03;;;;;;;6.07;4.63;;;;;;;;;;5021367;28;20033;-74
2022/07/12 06:04:30;;;;;;;5.43;4.15;;;;;;;;;;5025837;28;20399;-74
2022/07/12 06:06:56;;;;;;;4.68;4.22;;;;;;;;;;5025120;28;20028;-74
2022/07/12 06:09:22;;;;;;;5.68;4.60;;;;;;;;;;5026320;28;20025;-74
2022/07/12 06:11:48;;;;;;;5.47;4.85;;;;;;;;;;5026618;28;20021;-75
2022/07/12 06:14:15;;;;;;;4.63;4.15;;;;;;;;;;5025661;28;20048;-75
2022/07/12 06:16:41;;;;;;;4.97;3.78;;;;;;;;;;5024663;28;20021;-74
2022/07/12 06:19:07;;;;;;;4.10;3.70;;;;;;;;;;5024048;28;20076;-75
2022/07/12 06:21:33;;;;;;;4.13;3.72;;;;;;;;;;5026853;28;20087;-74
2022/07/12 06:23:59;;;;;;;6.03;4.05;;;;;;;;;;5027483;28;20033;-74
2022/07/12 06:26:25;;;;;;;7.00;3.70;;;;;;;;;;5027841;28;20025;-75
2022/07/12 06:28:51;;;;;;;5.22;3.33;;;;;;;;;;5028975;28;20045;-74
2022/07/12 06:31:17;;;;;;;4.72;3.28;;;;;;;;;;5029106;28;20087;-73
2022/07/12 06:33:43;;;;;;;6.32;3.95;;;;;;;;;;5026267;28;20025;-74
2022/07/12 06:36:10;;;;;;;6.78;4.13;;;;;;;;;;5027288;28;20029;-74
2022/07/12 06:38:36;;;;;;;5.20;3.90;;;;;;;;;;5026699;28;20112;-75
2022/07/12 06:41:02;;;;;;;4.82;3.97;;;;;;;;;;5027362;28;20045;-74
2022/07/12 06:43:28;;;;;;;7.38;4.25;;;;;;;;;;5029126;28;20037;-74
2022/07/12 06:45:54;;;;;;;4.05;3.15;;;;;;;;;;5030195;28;20018;-74
2022/07/12 06:48:20;;;;;;;4.53;3.42;;;;;;;;;;5030598;28;20040;-74
2022/07/12 06:50:46;;;;;;;3.85;3.45;;;;;;;;;;5030239;28;20052;-74
2022/07/12 06:53:13;;;;;;;4.95;3.65;;;;;;;;;;5025725;28;20026;-73
2022/07/12 06:55:39;;;;;;;5.30;3.50;;;;;;;;;;5030135;28;20032;-74
2022/07/12 06:58:05;;;;;;;4.72;3.38;;;;;;;;;;5030822;28;20029;-74
2022/07/12 07:00:31;;;;;;;5.82;4.07;;;;;;;;;;5027972;28;20068;-73
2022/07/12 07:02:57;;;;;;;5.90;3.35;;;;;;;;;;5025698;28;20022;-75
2022/07/12 07:05:23;;;;;;;6.65;3.83;;;;;;;;;;5026447;28;20026;-74
2022/07/12 07:07:49;;;;;;;4.90;3.25;;;;;;;;;;5029946;28;20048;-74
2022/07/12 07:10:15;;;;;;;6.97;4.40;;;;;;;;;;5030997;28;20025;-75
2022/07/12 07:12:41;;;;;;;3.35;3.05;;;;;;;;;;5022796;28;20021;-75
2022/07/12 07:15:08;;;;;;;4.40;3.38;;;;;;;;;;5025509;28;20036;-74
2022/07/12 07:17:34;;;;;;;4.55;3.20;;;;;;;;;;5028406;28;20386;-73
2022/07/12 07:20:00;;;;;;;3.42;3.13;;;;;;;;;;5029477;28;20489;-73
2022/07/12 07:22:27;;;;;;;3.83;3.10;;;;;;;;;;5027227;28;20483;-75
2022/07/12 07:24:53;;;;;;;3.03;2.67;;;;;;;;;;5029465;28;20124;-74
2022/07/12 07:27:19;;;;;;;3.88;3.17;;;;;;;;;;5030056;28;20107;-74
2022/07/12 07:32:31;;;;;;;4.88;3.58;;;;;;;;;;5023940;28;20052;-73
2022/07/12 07:34:57;;;;;;;4.70;4.15;;;;;;;;;;5024524;28;20037;-75
2022/07/12 07:37:23;;;;;;;5.85;3.38;;;;;;;;;;5029857;28;20085;-74
2022/07/12 07:39:49;;;;;;;4.55;3.30;;;;;;;;;;5026994;28;20040;-75
2022/07/12 07:42:15;;;;;;;5.82;3.70;;;;;;;;;;5029166;28;20021;-74
2022/07/12 07:44:41;;;;;;;4.55;3.35;;;;;;;;;;5029897;28;20022;-74
2022/07/12 07:47:07;;;;;;;8.60;4.63;;;;;;;;;;5023965;28;20078;-74
2022/07/12 07:49:33;;;;;;;5.43;3.50;;;;;;;;;;5023879;28;20030;-74
2022/07/12 07:51:59;;;;;;;8.18;3.60;;;;;;;;;;5028594;28;20400;-75
2022/07/12 07:54:25;;;;;;;5.25;3.65;;;;;;;;;;5027015;28;20450;-74
2022/07/12 07:56:52;;;;;;;5.15;3.63;;;;;;;;;;5023936;28;20026;-74
2022/07/12 07:59:18;;;;;;;3.65;2.83;;;;;;;;;;5029776;28;20032;-74
2022/07/12 08:01:48;;;;;;;4.93;3.45;;;;;;;;;;5024572;28;20064;-74
2022/07/12 08:04:15;;;;;;;3.53;3.17;;;;;;;;;;5025950;28;20025;-73
2022/07/12 08:06:41;;;;;;;4.95;3.15;;;;;;;;;;5026917;28;20136;-74
2022/07/12 08:09:08;;;;;;;3.92;3.38;;;;;;;;;;5029605;28;20033;-73
2022/07/12 08:11:35;;;;;;;5.28;3.33;;;;;;;;;;5028601;28;20022;-74
2022/07/12 08:14:01;;;;;;;4.60;3.55;;;;;;;;;;5028406;28;20062;-74
2022/07/12 08:16:27;;;;;;;4.63;3.45;;;;;;;;;;5028631;28;20021;-74
2022/07/12 08:18:53;;;;;;;5.13;3.80;;;;;;;;;;5029252;28;20022;-76
2022/07/12 08:21:19;;;;;;;4.80;4.30;;;;;;;;;;5032433;28;20028;-75
2022/07/12 08:23:45;;;;;;;5.50;3.60;;;;;;;;;;5030252;28;20037;-75
2022/07/12 08:26:11;;;;;;;5.15;3.78;;;;;;;;;;5031575;28;20030;-74
2022/07/12 08:28:38;;;;;;;5.30;3.85;;;;;;;;;;5031883;28;20056;-75
2022/07/12 08:31:04;;;;;;;7.63;3.60;;;;;;;;;;5029982;28;20029;-74
2022/07/12 08:33:30;;;;;;;5.55;3.95;;;;;;;;;;5029688;28;20048;-74
2022/07/12 08:35:56;;;;;;;4.03;3.38;;;;;;;;;;5028501;28;20029;-74
2022/07/12 08:38:22;;;;;;;4.28;3.80;;;;;;;;;;5027849;28;20021;-76
2022/07/12 08:40:48;;;;;;;5.80;4.00;;;;;;;;;;5025723;28;20021;-74
2022/07/12 08:43:14;;;;;;;4.35;3.60;;;;;;;;;;5026970;28;20032;-76
2022/07/12 08:45:40;;;;;;;4.63;3.67;;;;;;;;;;5024331;28;20025;-75
2022/07/12 08:48:07;;;;;;;4.47;3.00;;;;;;;;;;5028778;28;20105;-74
2022/07/12 08:50:33;;;;;;;5.80;4.25;;;;;;;;;;5027937;28;20459;-74
2022/07/12 08:53:00;;;;;;;4.88;4.18;;;;;;;;;;5026076;28;20089;-74
2022/07/12 08:55:27;;;;;;;3.72;3.35;;;;;;;;;;5027516;28;20037;-74
2022/07/12 08:57:54;;;;;;;4.63;4.10;;;;;;;;;;5026721;28;20020;-75
2022/07/12 09:00:21;;;;;;;4.10;3.70;;;;;;;;;;5027184;28;20025;-73
2022/07/12 09:02:51;;;;;;;4.60;4.00;;;;;;;;;;5024560;28;20646;-75
2022/07/12 09:05:19;;;;;;;4.93;3.53;;;;;;;;;;5028488;28;20025;-74
2022/07/12 09:07:45;;;;;;;5.28;3.70;;;;;;;;;;5027343;28;20029;-74
2022/07/12 09:10:12;;;;;;;4.22;3.53;;;;;;;;;;5023881;28;20408;-75
2022/07/12 09:12:40;;;;;;;3.65;3.33;;;;;;;;;;5027624;28;20425;-74
2022/07/12 09:15:13;;;;;;;5.82;4.25;;;;;;;;;;5028066;28;20104;-74
2022/07/12 09:17:39;;;;;;;6.10;3.47;;;;;;;;;;5024946;28;20026;-73
2022/07/12 09:20:05;;;;;;;4.90;3.33;;;;;;;;;;5027418;28;20021;-74
2022/07/12 09:22:32;;;;;;;4.93;3.65;;;;;;;;;;5027355;28;20740;-74
2022/07/12 09:25:02;;;;;;;6.05;3.97;;;;;;;;;;5027150;28;20090;-74
2022/07/12 09:27:28;;;;;;;6.78;3.67;;;;;;;;;;5025228;28;20519;-74
2022/07/12 09:29:55;;;;;;;6.97;3.58;;;;;;;;;;5031956;28;20548;-74
2022/07/12 09:37:50;;;;;;;5.77;3.50;;;;;;;;;;5022397;28;20124;-74
2022/07/12 09:40:16;;;;;;;6.43;4.38;;;;;;;;;;5027941;28;20260;-74
2022/07/12 09:42:42;;;;;;;10.32;4.13;;;;;;;;;;5026633;28;20060;-75
2022/07/12 09:45:10;;;;;;;6.40;4.00;;;;;;;;;;5026186;28;20057;-74
2022/07/12 09:47:36;;;;;;;4.32;3.90;;;;;;;;;;5026750;28;20032;-75
2022/07/12 09:50:04;;;;;;;5.15;3.65;;;;;;;;;;5021383;28;20025;-75
2022/07/12 09:52:30;;;;;;;6.35;3.42;;;;;;;;;;5027064;28;20025;-75
2022/07/12 09:54:56;;;;;;;6.75;3.83;;;;;;;;;;5027415;28;20446;-74
2022/07/12 09:57:26;;;;;;;6.20;3.67;;;;;;;;;;5028101;28;20025;-74
2022/07/12 09:59:53;;;;;;;5.63;3.63;;;;;;;;;;5027439;28;20033;-76
2022/07/12 10:02:21;;;;;;;7.13;3.53;;;;;;;;;;5026201;28;20454;-75
2022/07/12 10:04:48;;;;;;;4.28;3.88;;;;;;;;;;5025434;28;20029;-75
2022/07/12 10:07:15;;;;;;;8.48;3.60;;;;;;;;;;5028093;28;20423;-75
2022/07/12 10:09:47;;;;;;;4.35;3.58;;;;;;;;;;5026986;28;20014;-74
2022/07/12 10:12:15;;;;;;;6.45;3.90;;;;;;;;;;5013726;28;20018;-75
2022/07/12 10:14:42;;;;;;;5.53;3.42;;;;;;;;;;5027082;28;20025;-74
2022/07/12 10:17:12;;;;;;;4.53;3.65;;;;;;;;;;5025936;28;20052;-75
2022/07/12 10:19:47;;;;;;;4.63;3.97;;;;;;;;;;5027588;28;20108;-75
2022/07/12 10:22:21;;;;;;;4.38;3.70;;;;;;;;;;5026938;28;20017;-75
2022/07/12 10:24:48;;;;;;;4.60;3.55;;;;;;;;;;5028434;28;20021;-75
2022/07/12 10:27:14;;;;;;;6.65;3.83;;;;;;;;;;5027844;28;20476;-73
2022/07/12 10:29:41;;;;;;;4.75;3.85;;;;;;;;;;5028432;28;20033;-74
2022/07/12 10:32:26;;;;;;;4.10;3.70;;;;;;;;;;5022311;28;20030;-75
2022/07/12 10:34:52;;;;;;;;;;;;;;;;;;5026174;28;20026;-75
2022/07/12 10:37:19;;;;;;;10.60;3.35;;;;;;;;;;5026239;28;20377;-75
2022/07/12 10:40:04;;;;;;;5.70;2.95;;;;;;;;;;5024452;28;20025;-76
2022/07/12 10:42:30;;;;;;;4.28;2.90;;;;;;;;;;5020785;28;20026;-75
2022/07/12 10:45:09;;;;;;;5.25;3.42;;;;;;;;;;5025112;28;20057;-76
2022/07/12 10:47:53;;;;;;;4.90;3.45;;;;;;;;;;5025741;28;20496;-75
2022/07/12 10:50:19;;;;;;;5.40;3.17;;;;;;;;;;5023847;28;20120;-75
2022/07/12 10:52:45;;;;;;;7.72;3.33;;;;;;;;;;5024492;28;20104;-76
2022/07/12 10:55:15;;;;;;;4.30;2.95;;;;;;;;;;5028551;28;20033;-75
2022/07/12 10:57:49;;;;;;;5.15;3.10;;;;;;;;;;5027574;28;20021;-75
2022/07/12 11:00:15;;;;;;;5.72;2.88;;;;;;;;;;5031246;28;20385;-76
2022/07/12 11:02:41;;;;;;;4.43;3.28;;;;;;;;;;5028167;28;20352;-76
2022/07/12 11:05:08;;;;;;;6.13;3.88;;;;;;;;;;5026423;28;20034;-75
2022/07/12 11:07:35;;;;;;;4.05;3.15;;;;;;;;;;5026094;28;20022;-74
2022/07/12 11:10:01;;;;;;;5.40;3.45;;;;;;;;;;5027716;28;20048;-75
2022/07/12 11:12:30;;;;;;;7.35;3.25;;;;;;;;;;5027688;28;20025;-75
2022/07/12 11:14:57;;;;;;;4.85;3.22;;;;;;;;;;5031075;28;20231;-75
2022/07/12 11:17:30;;;;;;;3.83;3.08;;;;;;;;;;5028791;28;20030;-76
2022/07/12 11:20:09;;;;;;;3.30;2.70;;;;;;;;;;5029334;28;20636;-74
2022/07/12 11:22:35;;;;;;;4.28;3.42;;;;;;;;;;5028870;28;20045;-74
2022/07/12 11:25:03;;;;;;;4.40;2.72;;;;;;;;;;5030786;28;20037;-74
2022/07/12 11:27:29;;;;;;;4.07;3.28;;;;;;;;;;5028466;28;20547;-75
2022/07/12 11:30:02;;;;;;;3.42;3.13;;;;;;;;;;5029884;28;20025;-74
2022/07/12 11:32:35;;;;;;;4.50;3.05;;;;;;;;;;5026110;28;20048;-75
2022/07/12 11:35:01;;;;;;;4.65;3.05;;;;;;;;;;5024608;28;20079;-74
2022/07/12 11:37:28;;;;;;;4.43;3.00;;;;;;;;;;5029334;28;20162;-76
2022/07/12 11:39:54;;;;;;;4.80;3.13;;;;;;;;;;5030372;28;20025;-74
2022/07/12 11:42:20;;;;;;;5.20;3.10;;;;;;;;;;5028838;28;20298;-75
2022/07/12 11:44:46;;;;;;;5.10;3.08;;;;;;;;;;5029900;28;20033;-74
2022/07/12 11:47:12;;;;;;;3.22;2.85;;;;;;;;;;5028686;28;20466;-74
2022/07/12 11:49:48;;;;;;;3.38;2.90;;;;;;;;;;5030112;28;20029;-75
2022/07/12 11:52:14;;;;;;;3.70;2.90;;;;;;;;;;5027486;28;20044;-75
2022/07/12 11:54:41;;;;;;;3.88;2.75;;;;;;;;;;5029297;28;20021;-75
2022/07/12 11:57:08;;;;;;;5.13;3.38;;;;;;;;;;5028554;28;20041;-75
2022/07/12 11:59:34;;;;;;;3.88;2.78;;;;;;;;;;5029467;28;20033;-75
2022/07/12 12:02:04;;;;;;;6.55;2.80;;;;;;;;;;5027901;28;20060;-75
2022/07/12 12:04:30;;;;;;;6.13;3.20;;;;;;;;;;5026327;28;20499;-75
2022/07/12 12:06:56;;;;;;;10.55;2.88;;;;;;;;;;5029239;28;20031;-76
2022/07/12 12:09:22;;;;;;;5.72;3.15;;;;;;;;;;5029829;28;20030;-75
2022/07/12 12:11:49;;;;;;;3.38;2.40;;;;;;;;;;5028073;28;20096;-75
2022/07/12 12:14:15;;;;;;;3.20;2.63;;;;;;;;;;5028844;28;20057;-74
2022/07/12 12:16:41;;;;;;;5.78;2.45;;;;;;;;;;5028468;28;20026;-74
2022/07/12 12:19:11;;;;;;;3.25;2.92;;;;;;;;;;5029161;28;20037;-75
2022/07/12 12:21:37;;;;;;;4.43;2.70;;;;;;;;;;5027715;28;20056;-75
2022/07/12 12:24:10;;;;;;;3.88;2.72;;;;;;;;;;5028523;28;20041;-74
2022/07/12 12:26:36;;;;;;;3.38;2.55;;;;;;;;;;5027519;28;20112;-76
2022/07/12 12:29:03;;;;;;;5.57;3.92;;;;;;;;;;5025518;28;20494;-75
2022/07/12 12:31:29;;;;;;;7.20;3.08;;;;;;;;;;5024230;28;20033;-75
2022/07/12 12:33:56;;;;;;;4.57;2.70;;;;;;;;;;5026646;28;20021;-76
2022/07/12 12:36:25;;;;;;;2.67;2.40;;;;;;;;;;5025608;28;20025;-75
2022/07/12 12:38:52;;;;;;;3.70;2.72;;;;;;;;;;5029004;28;20457;-75
2022/07/12 12:41:22;;;;;;;4.57;2.70;;;;;;;;;;5021999;28;20040;-76
2022/07/12 12:43:48;;;;;;;5.07;2.83;;;;;;;;;;5027060;28;20029;-75
2022/07/12 12:46:15;;;;;;;5.43;2.45;;;;;;;;;;5026100;28;20032;-75
2022/07/12 12:48:47;;;;;;;3.47;2.80;;;;;;;;;;5028193;28;20487;-75
2022/07/12 12:51:13;;;;;;;3.00;2.67;;;;;;;;;;5028727;28;20550;-76
2022/07/12 12:53:40;;;;;;;4.10;2.55;;;;;;;;;;5026448;28;20025;-75
2022/07/12 12:56:08;;;;;;;3.30;2.60;;;;;;;;;;5028678;28;20502;-76
2022/07/12 12:58:34;;;;;;;5.88;2.35;;;;;;;;;;5027427;28;20021;-76
2022/07/12 13:01:00;;;;;;;4.60;3.00;;;;;;;;;;5027787;28;20030;-75
2022/07/12 13:03:26;;;;;;;5.50;2.70;;;;;;;;;;5026890;28;20025;-75
2022/07/12 13:05:52;;;;;;;3.00;2.70;;;;;;;;;;5028248;28;20580;-76
2022/07/12 13:08:19;;;;;;;3.45;2.42;;;;;;;;;;5026528;28;20475;-76
2022/07/12 13:10:46;;;;;;;5.68;2.88;;;;;;;;;;5024134;28;20467;-75
2022/07/12 13:13:12;;;;;;;3.28;2.30;;;;;;;;;;5028315;28;20079;-75
2022/07/12 13:15:39;;;;;;;4.68;3.13;;;;;;;;;;5026727;28;20036;-75
2022/07/12 13:18:05;;;;;;;3.03;2.55;;;;;;;;;;5025623;28;20053;-76
2022/07/12 13:20:32;;;;;;;2.78;2.58;;;;;;;;;;5025922;28;20030;-75
2022/07/12 13:22:58;;;;;;;3.53;2.30;;;;;;;;;;5027954;28;20071;-75
2022/07/12 13:25:25;;;;;;;3.55;2.63;;;;;;;;;;5024812;28;20516;-75
2022/07/12 13:27:51;;;;;;;4.85;2.45;;;;;;;;;;5026801;28;20045;-75
2022/07/12 13:30:19;;;;;;;2.75;2.50;;;;;;;;;;5028427;28;20494;-76
2022/07/12 13:32:46;;;;;;;2.75;2.40;;;;;;;;;;5025308;28;20032;-74
2022/07/12 13:35:12;;;;;;;3.90;2.53;;;;;;;;;;5028639;28;20108;-76
2022/07/12 13:37:39;;;;;;;4.07;2.60;;;;;;;;;;5026501;28;20375;-75
2022/07/12 13:40:15;;;;;;;3.67;2.40;;;;;;;;;;5026925;28;20426;-76
2022/07/12 13:42:42;;;;;;;2.85;2.38;;;;;;;;;;5028002;28;20036;-75
2022/07/12 13:45:09;;;;;;;3.28;2.72;;;;;;;;;;5027012;28;20545;-75
2022/07/12 13:47:36;;;;;;;3.00;2.33;;;;;;;;;;5026818;28;20037;-76
2022/07/12 13:50:02;;;;;;;3.63;2.80;;;;;;;;;;5025767;28;20553;-75
2022/07/12 13:52:32;;;;;;;3.00;2.70;;;;;;;;;;5027485;28;20052;-75
2022/07/12 13:54:58;;;;;;;4.80;2.70;;;;;;;;;;5025785;28;20056;-76
2022/07/12 13:57:24;;;;;;;3.38;2.60;;;;;;;;;;5025718;28;20025;-75
2022/07/12 13:59:52;;;;;;;4.13;2.88;;;;;;;;;;5026396;28;20426;-79
2022/07/12 14:02:18;;;;;;;3.00;2.70;;;;;;;;;;5026894;28;20029;-74
2022/07/12 14:04:44;;;;;;;4.35;3.00;;;;;;;;;;5023704;28;20103;-77
2022/07/12 14:07:11;;;;;;;2.85;2.47;;;;;;;;;;5028367;28;20025;-74
2022/07/12 14:09:37;;;;;;;3.60;2.70;;;;;;;;;;5027152;28;20021;-75
2022/07/12 14:12:04;;;;;;;5.10;2.80;;;;;;;;;;5027426;28;20469;-74
2022/07/12 14:17:15;;;;;;;4.30;2.65;;;;;;;;;;5021644;28;20550;-75
2022/07/12 14:19:41;;;;;;;3.78;2.55;;;;;;;;;;5027572;28;20079;-75
2022/07/12 14:22:08;;;;;;;3.30;2.83;;;;;;;;;;5027545;28;20262;-75
2022/07/12 14:24:34;;;;;;;3.13;2.83;;;;;;;;;;5027791;28;20026;-75
2022/07/12 14:27:01;;;;;;;4.00;2.60;;;;;;;;;;5026658;28;20376;-74
2022/07/12 14:29:27;;;;;;;3.35;2.55;;;;;;;;;;5021482;28;20040;-75
2022/07/12 14:31:55;;;;;;;3.33;2.50;;;;;;;;;;5027253;28;20030;-75
2022/07/12 14:34:21;;;;;;;5.35;2.50;;;;;;;;;;5027814;28;20033;-76
2022/07/12 14:36:47;;;;;;;3.13;2.83;;;;;;;;;;5027160;28;20057;-76
2022/07/12 14:39:13;;;;;;;3.42;2.50;;;;;;;;;;5028383;28;20022;-75
2022/07/12 14:41:42;;;;;;;3.33;2.20;;;;;;;;;;5027463;28;20468;-75
2022/07/12 14:44:09;;;;;;;2.80;2.50;;;;;;;;;;5029067;28;20025;-76
2022/07/12 14:46:35;;;;;;;4.30;2.58;;;;;;;;;;5032275;28;20415;-75
2022/07/12 14:49:01;;;;;;;4.00;2.83;;;;;;;;;;5027409;28;20026;-75
2022/07/12 14:51:27;;;;;;;3.70;2.88;;;;;;;;;;5031640;28;20057;-75
2022/07/12 14:53:53;;;;;;;3.35;2.90;;;;;;;;;;5028727;28;20031;-75
2022/07/12 14:56:20;;;;;;;3.13;2.83;;;;;;;;;;5029955;28;20029;-75